createdAt,value
2024-02-02T00:00:52.295Z,2.27
2024-02-02T00:03:55.229Z,2.17
2024-02-02T00:06:59.670Z,2.20
2024-02-02T00:10:02.896Z,2.40
2024-02-02T00:13:06.544Z,2.70
2024-02-02T00:16:09.643Z,3.03
2024-02-02T00:19:12.802Z,2.83
2024-02-02T00:22:17.866Z,2.93
2024-02-02T00:25:20.776Z,2.87
2024-02-02T00:28:23.649Z,2.50
2024-02-02T00:31:26.591Z,2.03
2024-02-02T00:34:29.631Z,2.50
2024-02-02T00:37:33.995Z,2.17
2024-02-02T00:40:36.921Z,1.83
2024-02-02T00:43:39.797Z,2.00
2024-02-02T00:46:42.689Z,1.70
2024-02-02T00:49:45.781Z,1.73
2024-02-02T00:52:50.334Z,1.50
2024-02-02T00:55:53.223Z,2.10
2024-02-02T00:58:56.081Z,1.53
2024-02-02T01:01:59.037Z,1.90
2024-02-02T01:05:01.956Z,1.60
2024-02-02T01:08:07.192Z,1.70
2024-02-02T01:11:10.236Z,1.43
2024-02-02T01:14:13.405Z,1.83
2024-02-02T01:17:16.275Z,1.60
2024-02-02T01:20:19.482Z,2.53
2024-02-02T01:23:23.815Z,1.70
2024-02-02T01:26:27.080Z,1.47
2024-02-02T01:29:30.484Z,1.70
2024-02-02T01:32:33.603Z,1.80
2024-02-02T01:35:36.538Z,2.20
2024-02-02T01:38:40.864Z,1.57
2024-02-02T01:41:43.721Z,1.73
2024-02-02T01:44:46.578Z,2.10
2024-02-02T01:47:49.530Z,1.57
2024-02-02T01:50:52.408Z,1.53
2024-02-02T01:53:57.140Z,1.30
2024-02-02T01:57:00.138Z,1.47
2024-02-02T02:00:03.499Z,1.80
2024-02-02T02:03:07.177Z,1.83
2024-02-02T02:06:11.180Z,2.10
2024-02-02T02:09:15.672Z,2.20
2024-02-02T02:12:18.819Z,1.60
2024-02-02T02:15:21.846Z,1.87
2024-02-02T02:18:24.770Z,1.47
2024-02-02T02:21:30.156Z,1.63
2024-02-02T02:24:33.235Z,2.00
2024-02-02T02:27:36.345Z,1.70
2024-02-02T02:30:39.723Z,1.00
2024-02-02T02:33:43.383Z,1.43
2024-02-02T02:36:47.637Z,1.17
2024-02-02T02:39:50.798Z,1.93
2024-02-02T02:42:53.579Z,1.87
2024-02-02T02:45:56.894Z,2.30
2024-02-02T02:49:00.735Z,2.00
2024-02-02T02:52:05.422Z,1.97
2024-02-02T02:55:08.768Z,2.33
2024-02-02T02:58:13.265Z,2.60
2024-02-02T03:01:16.662Z,2.00
2024-02-02T03:04:19.656Z,1.70
2024-02-02T03:07:24.025Z,1.70
2024-02-02T03:10:27.265Z,1.83
2024-02-02T03:13:30.196Z,1.70
2024-02-02T03:16:33.084Z,2.00
2024-02-02T03:19:35.898Z,1.83
2024-02-02T03:22:40.374Z,1.73
2024-02-02T03:25:43.440Z,1.90
2024-02-02T03:28:46.292Z,1.93
2024-02-02T03:31:49.259Z,2.17
2024-02-02T03:34:52.506Z,1.50
2024-02-02T03:37:56.937Z,2.00
2024-02-02T03:40:59.802Z,1.80
2024-02-02T03:44:02.618Z,2.30
2024-02-02T03:47:05.446Z,1.90
2024-02-02T03:50:09.313Z,2.03
2024-02-02T03:53:13.614Z,1.87
2024-02-02T03:56:16.476Z,1.67
2024-02-02T03:59:19.355Z,2.03
2024-02-02T04:02:22.431Z,2.20
2024-02-02T04:05:25.414Z,1.80
2024-02-02T04:08:30.610Z,1.90
2024-02-02T04:11:33.620Z,1.83
2024-02-02T04:14:36.532Z,1.97
2024-02-02T04:17:39.500Z,2.03
2024-02-02T04:20:42.629Z,1.90
2024-02-02T04:23:46.924Z,1.87
2024-02-02T04:26:49.849Z,2.10
2024-02-02T04:29:53.433Z,2.13
2024-02-02T04:32:56.487Z,2.20
2024-02-02T04:35:59.417Z,2.20
2024-02-02T04:39:04.297Z,1.80
2024-02-02T04:42:07.823Z,2.17
2024-02-02T04:45:11.367Z,1.93
2024-02-02T04:48:15.345Z,2.03
2024-02-02T04:51:18.470Z,1.97
2024-02-02T04:54:22.769Z,1.90
2024-02-02T04:57:25.813Z,2.27
2024-02-02T05:00:29.113Z,2.27
2024-02-02T05:03:33.289Z,2.10
2024-02-02T05:06:36.386Z,1.73
2024-02-02T05:09:40.745Z,2.10
2024-02-02T05:12:43.739Z,1.93
2024-02-02T05:15:47.373Z,1.70
2024-02-02T05:18:51.858Z,1.73
2024-02-02T05:21:54.923Z,1.90
2024-02-02T05:24:59.452Z,2.20
2024-02-02T05:28:02.336Z,2.70
2024-02-02T05:31:05.659Z,2.00
2024-02-02T05:34:08.832Z,1.90
2024-02-02T05:37:11.868Z,1.67
2024-02-02T05:40:16.502Z,1.90
2024-02-02T05:43:19.324Z,1.80
2024-02-02T05:46:22.207Z,1.73
2024-02-02T05:49:25.376Z,1.77
2024-02-02T05:52:28.483Z,1.80
2024-02-02T05:55:33.033Z,2.07
2024-02-02T05:58:35.950Z,1.63
2024-02-02T06:01:38.886Z,1.70
2024-02-02T06:04:41.936Z,2.30
2024-02-02T06:07:44.778Z,2.10
2024-02-02T06:10:49.013Z,1.90
2024-02-02T06:13:56.132Z,1.83
2024-02-02T06:16:59.216Z,1.73
2024-02-02T06:20:02.422Z,2.10
2024-02-02T06:23:07.129Z,2.40
2024-02-02T06:26:11.654Z,2.10
2024-02-02T06:29:14.595Z,2.23
2024-02-02T06:32:18.604Z,2.30
2024-02-02T06:35:21.508Z,1.63
2024-02-02T06:38:24.362Z,1.80
2024-02-02T06:41:28.634Z,2.07
2024-02-02T06:44:31.559Z,1.40
2024-02-02T06:47:34.768Z,1.97
2024-02-02T06:50:37.977Z,1.90
2024-02-02T06:53:41.054Z,2.30
2024-02-02T06:56:46.200Z,2.30
2024-02-02T06:59:50.345Z,2.33
2024-02-02T07:02:53.306Z,2.10
2024-02-02T07:05:56.646Z,2.37
2024-02-02T07:09:02.792Z,1.97
2024-02-02T07:12:10.498Z,1.93
2024-02-02T07:15:19.447Z,2.27
2024-02-02T07:18:37.918Z,2.33
2024-02-02T07:21:41.079Z,1.80
2024-02-02T07:24:44.877Z,2.13
2024-02-02T07:27:55.430Z,2.00
2024-02-02T07:30:59.081Z,1.70
2024-02-02T07:34:07.266Z,1.87
2024-02-02T07:37:12.633Z,2.07
2024-02-02T07:40:52.500Z,2.10
2024-02-02T07:44:00.129Z,2.10
2024-02-02T07:47:03.075Z,1.60
2024-02-02T07:50:07.349Z,1.67
2024-02-02T07:53:10.444Z,1.90
2024-02-02T07:56:13.828Z,3.03
2024-02-02T07:59:18.177Z,2.70
2024-02-02T08:02:21.212Z,2.73
2024-02-02T08:05:24.030Z,3.30
2024-02-02T08:08:26.922Z,3.80
2024-02-02T08:11:36.763Z,3.00
2024-02-02T08:14:41.789Z,2.63
2024-02-02T08:17:44.866Z,2.50
2024-02-02T08:20:48.076Z,1.90
2024-02-02T08:23:51.020Z,2.37
2024-02-02T08:26:54.563Z,2.73
2024-02-02T08:29:59.503Z,2.53
2024-02-02T08:33:02.787Z,2.70
2024-02-02T08:36:06.493Z,2.57
2024-02-02T08:39:10.990Z,2.67
2024-02-02T08:42:21.059Z,2.30
2024-02-02T08:46:04.853Z,2.80
2024-02-02T08:49:34.551Z,2.90
2024-02-02T08:52:39.207Z,3.03
2024-02-02T08:55:45.381Z,3.13
2024-02-02T08:58:48.280Z,3.17
2024-02-02T09:01:52.701Z,3.23
2024-02-02T09:05:12.288Z,3.37
2024-02-02T09:08:28.571Z,3.43
2024-02-02T09:11:31.517Z,3.80
2024-02-02T09:14:34.828Z,3.93
2024-02-02T09:17:39.079Z,3.40
2024-02-02T09:20:46.763Z,4.57
2024-02-02T09:23:51.464Z,4.47
2024-02-02T09:26:54.523Z,4.03
2024-02-02T09:29:57.666Z,4.83
2024-02-02T09:33:03.602Z,4.37
2024-02-02T09:36:08.234Z,3.97
2024-02-02T09:39:49.176Z,4.23
2024-02-02T09:43:08.860Z,4.33
2024-02-02T09:46:22.267Z,4.03
2024-02-02T09:49:35.832Z,4.10
2024-02-02T09:52:54.427Z,4.47
2024-02-02T09:56:08.054Z,4.40
2024-02-02T09:59:19.759Z,3.97
2024-02-02T10:02:41.103Z,3.93
2024-02-02T10:05:59.770Z,3.93
2024-02-02T10:09:26.372Z,4.13
2024-02-02T10:12:41.169Z,4.13
2024-02-02T10:15:54.290Z,4.03
2024-02-02T10:19:13.406Z,4.07
2024-02-02T10:22:32.616Z,4.20
2024-02-02T10:25:53.070Z,4.23
2024-02-02T10:29:06.705Z,4.27
2024-02-02T10:32:32.555Z,4.70
2024-02-02T10:35:40.569Z,4.07
2024-02-02T10:39:13.762Z,3.77
2024-02-02T10:42:31.897Z,4.93
2024-02-02T10:45:44.131Z,3.80
2024-02-02T10:49:05.367Z,3.60
2024-02-02T10:52:20.914Z,2.85
2024-02-02T10:55:41.475Z,2.95
2024-02-02T10:59:04.454Z,2.95
2024-02-02T11:02:16.837Z,2.30
2024-02-02T11:05:27.358Z,2.00
2024-02-02T11:08:37.319Z,1.92
2024-02-02T11:11:49.075Z,1.40
2024-02-02T11:15:02.911Z,1.35
2024-02-02T11:18:23.639Z,1.35
2024-02-02T11:21:44.340Z,1.25
2024-02-02T11:24:59.417Z,1.30
2024-02-02T11:28:07.115Z,1.10
2024-02-02T11:31:18.076Z,1.10
2024-02-02T11:34:32.945Z,1.08
2024-02-02T11:37:47.104Z,1.10
2024-02-02T11:40:51.840Z,1.10
2024-02-02T11:43:57.222Z,1.10
2024-02-02T11:47:00.692Z,1.15
2024-02-02T11:50:08.210Z,1.00
2024-02-02T11:53:25.109Z,1.15
2024-02-02T11:56:34.002Z,1.05
2024-02-02T11:59:41.590Z,1.23
2024-02-02T12:03:11.248Z,1.00
2024-02-02T12:06:17.188Z,1.05
2024-02-02T12:09:26.912Z,0.88
2024-02-02T12:12:35.649Z,1.20
2024-02-02T12:15:40.180Z,0.95
2024-02-02T12:18:44.256Z,0.90
2024-02-02T12:21:48.482Z,0.77
2024-02-02T12:24:52.228Z,0.90
2024-02-02T12:27:55.452Z,0.80
2024-02-02T12:30:59.829Z,1.17
2024-02-02T12:34:03.493Z,1.00
2024-02-02T12:37:06.630Z,0.90
2024-02-02T12:40:10.690Z,0.90
2024-02-02T12:43:13.699Z,0.55
2024-02-02T12:46:19.201Z,0.80
2024-02-02T12:49:25.532Z,0.75
2024-02-02T12:52:29.545Z,0.70
2024-02-02T12:55:32.550Z,0.52
2024-02-02T12:58:35.442Z,0.60
2024-02-02T13:01:39.952Z,0.60
2024-02-02T13:04:43.020Z,0.50
2024-02-02T13:07:49.082Z,0.70
2024-02-02T13:10:52.695Z,0.45
2024-02-02T13:14:05.131Z,0.50
2024-02-02T13:17:11.324Z,0.65
2024-02-02T13:20:16.886Z,0.50
2024-02-02T13:23:21.668Z,0.55
2024-02-02T13:26:36.928Z,0.60
2024-02-02T13:29:41.033Z,0.60
2024-02-02T13:32:46.836Z,0.50
2024-02-02T13:35:54.664Z,0.70
2024-02-02T13:39:00.281Z,0.47
2024-02-02T13:42:06.082Z,0.57
2024-02-02T13:45:11.724Z,0.50
2024-02-02T13:48:16.417Z,0.60
2024-02-02T13:51:25.773Z,0.68
2024-02-02T13:54:28.869Z,1.40
2024-02-02T13:57:31.989Z,0.90
2024-02-02T14:00:35.485Z,0.88
2024-02-02T14:03:40.008Z,1.98
2024-02-02T14:06:43.219Z,1.15
2024-02-02T14:09:49.061Z,0.50
2024-02-02T14:12:52.951Z,1.45
2024-02-02T14:15:56.650Z,0.60
2024-02-02T14:19:05.846Z,0.50
2024-02-02T14:22:10.468Z,0.40
2024-02-02T14:25:13.505Z,0.40
2024-02-02T14:28:17.555Z,0.43
2024-02-02T14:31:20.704Z,0.50
2024-02-02T14:34:26.123Z,0.50
2024-02-02T14:37:29.288Z,0.50
2024-02-02T14:40:32.577Z,0.40
2024-02-02T14:43:35.602Z,0.40
2024-02-02T14:46:41.109Z,0.50
2024-02-02T14:49:46.226Z,0.45
2024-02-02T14:52:49.344Z,0.40
2024-02-02T14:55:52.191Z,0.20
2024-02-02T14:59:08.454Z,0.50
2024-02-02T15:02:12.752Z,0.50
2024-02-02T15:05:17.160Z,0.60
2024-02-02T15:08:20.417Z,0.70
2024-02-02T15:11:23.273Z,0.30
2024-02-02T15:14:26.239Z,0.47
2024-02-02T15:17:29.013Z,0.32
2024-02-02T15:20:33.289Z,0.40
2024-02-02T15:23:36.087Z,0.28
2024-02-02T15:26:39.997Z,0.55
2024-02-02T15:29:42.928Z,1.00
2024-02-02T15:32:46.769Z,0.80
2024-02-02T15:35:54.684Z,1.45
2024-02-02T15:39:11.934Z,1.13
2024-02-02T15:42:20.451Z,1.00
2024-02-02T15:45:23.403Z,1.02
2024-02-02T15:48:26.350Z,0.60
2024-02-02T15:51:31.804Z,0.55
2024-02-02T15:54:35.362Z,0.68
2024-02-02T15:57:38.594Z,0.70
2024-02-02T16:00:41.952Z,1.05
2024-02-02T16:03:45.182Z,0.90
2024-02-02T16:06:49.508Z,0.80
2024-02-02T16:09:52.524Z,1.02
2024-02-02T16:12:55.484Z,0.70
2024-02-02T16:15:58.362Z,0.60
2024-02-02T16:19:01.610Z,0.57
2024-02-02T16:22:06.326Z,0.55
2024-02-02T16:25:10.870Z,0.65
2024-02-02T16:28:13.981Z,0.77
2024-02-02T16:31:17.061Z,0.70
2024-02-02T16:34:20.480Z,0.70
2024-02-02T16:37:24.808Z,1.43
2024-02-02T16:40:27.979Z,1.37
2024-02-02T16:43:30.931Z,2.00
2024-02-02T16:46:33.809Z,1.60
2024-02-02T16:49:37.567Z,1.70
2024-02-02T16:52:41.874Z,1.37
2024-02-02T16:55:44.674Z,1.40
2024-02-02T16:58:48.122Z,0.80
2024-02-02T17:01:50.978Z,0.90
2024-02-02T17:04:53.804Z,1.00
2024-02-02T17:07:59.749Z,0.90
2024-02-02T17:11:06.663Z,0.90
2024-02-02T17:14:09.600Z,1.20
2024-02-02T17:17:12.491Z,0.93
2024-02-02T17:20:19.035Z,0.83
2024-02-02T17:23:23.511Z,0.70
2024-02-02T17:26:26.341Z,0.70
2024-02-02T17:29:30.914Z,0.90
2024-02-02T17:32:38.753Z,0.83
2024-02-02T17:35:47.091Z,0.83
2024-02-02T17:38:53.713Z,1.00
2024-02-02T17:41:56.649Z,1.00
2024-02-02T17:44:59.511Z,1.13
2024-02-02T17:48:02.839Z,1.30
2024-02-02T17:51:07.760Z,1.33
2024-02-02T17:54:12.061Z,1.13
2024-02-02T17:57:14.986Z,1.33
2024-02-02T18:00:18.577Z,1.40
2024-02-02T18:03:21.513Z,1.10
2024-02-02T18:06:24.469Z,1.23
2024-02-02T18:09:28.668Z,1.73
2024-02-02T18:12:37.603Z,1.40
2024-02-02T18:15:40.657Z,1.60
2024-02-02T18:18:43.597Z,1.60
2024-02-02T18:21:46.889Z,1.63
2024-02-02T18:24:51.619Z,1.40
2024-02-02T18:27:54.832Z,1.40
2024-02-02T18:30:57.678Z,1.40
2024-02-02T18:34:00.712Z,1.13
2024-02-02T18:37:03.912Z,2.13
2024-02-02T18:40:09.591Z,1.60
2024-02-02T18:43:12.487Z,1.63
2024-02-02T18:46:15.436Z,1.30
2024-02-02T18:49:18.294Z,1.53
2024-02-02T18:52:21.234Z,1.47
2024-02-02T18:55:25.550Z,1.90
2024-02-02T18:58:35.429Z,1.53
2024-02-02T19:01:42.582Z,2.03
2024-02-02T19:04:45.996Z,1.87
2024-02-02T19:07:48.948Z,2.10
2024-02-02T19:10:53.137Z,2.10
2024-02-02T19:13:55.945Z,2.47
2024-02-02T19:16:58.783Z,2.37
2024-02-02T19:20:01.774Z,2.10
2024-02-02T19:23:05.130Z,2.00
2024-02-02T19:26:09.324Z,2.07
2024-02-02T19:29:12.239Z,1.67
2024-02-02T19:32:16.446Z,1.70
2024-02-02T19:35:19.384Z,1.90
2024-02-02T19:38:22.194Z,1.53
2024-02-02T19:41:29.359Z,1.43
2024-02-02T19:44:32.148Z,1.30
2024-02-02T19:47:34.971Z,2.00
2024-02-02T19:50:37.939Z,1.43
2024-02-02T19:53:40.734Z,1.40
2024-02-02T19:56:44.910Z,1.50
2024-02-02T19:59:47.865Z,1.73
2024-02-02T20:02:51.347Z,1.50
2024-02-02T20:05:54.491Z,1.73
2024-02-02T20:08:57.506Z,1.20
2024-02-02T20:12:02.341Z,1.40
2024-02-02T20:15:05.811Z,1.27
2024-02-02T20:18:09.188Z,1.50
2024-02-02T20:21:14.281Z,1.73
2024-02-02T20:24:17.276Z,1.40
2024-02-02T20:27:21.962Z,1.80
2024-02-02T20:30:24.964Z,2.33
2024-02-02T20:33:28.050Z,1.83
2024-02-02T20:36:32.256Z,1.20
2024-02-02T20:39:36.764Z,1.80
2024-02-02T20:42:43.826Z,1.57
2024-02-02T20:45:46.964Z,1.20
2024-02-02T20:48:50.533Z,1.27
2024-02-02T20:51:55.224Z,1.40
2024-02-02T20:55:00.210Z,2.17
2024-02-02T20:58:04.833Z,1.40
2024-02-02T21:01:07.737Z,2.00
2024-02-02T21:04:10.760Z,1.37
2024-02-02T21:07:13.809Z,1.20
2024-02-02T21:10:16.973Z,1.00
2024-02-02T21:13:21.832Z,0.93
2024-02-02T21:16:24.821Z,1.00
2024-02-02T21:19:28.922Z,1.03
2024-02-02T21:22:34.435Z,1.03
2024-02-02T21:25:37.530Z,0.90
2024-02-02T21:28:41.706Z,0.93
2024-02-02T21:31:44.478Z,1.00
2024-02-02T21:34:47.597Z,1.20
2024-02-02T21:37:50.999Z,0.90
2024-02-02T21:40:53.860Z,0.90
2024-02-02T21:43:58.535Z,1.10
2024-02-02T21:47:01.304Z,1.30
2024-02-02T21:50:04.561Z,1.70
2024-02-02T21:53:13.257Z,1.70
2024-02-02T21:56:16.381Z,1.70
2024-02-02T21:59:20.534Z,1.77
2024-02-02T22:02:23.316Z,1.23
2024-02-02T22:05:26.291Z,1.73
2024-02-02T22:08:29.162Z,2.17
2024-02-02T22:11:32.171Z,2.50
2024-02-02T22:14:39.743Z,2.83
2024-02-02T22:17:42.616Z,2.10
2024-02-02T22:20:47.827Z,2.27
2024-02-02T22:23:51.047Z,1.90
2024-02-02T22:26:53.920Z,1.80
2024-02-02T22:29:58.260Z,1.33
2024-02-02T22:33:01.246Z,1.10
2024-02-02T22:36:05.700Z,1.30
2024-02-02T22:39:08.768Z,1.00
2024-02-02T22:42:11.991Z,1.07
2024-02-02T22:45:17.161Z,1.00
2024-02-02T22:48:20.271Z,0.87
2024-02-02T22:51:23.315Z,1.33
2024-02-02T22:54:26.247Z,1.40
2024-02-02T22:57:29.154Z,1.40
2024-02-02T23:00:33.633Z,1.27
2024-02-02T23:03:36.694Z,1.30
2024-02-02T23:06:39.893Z,1.93
2024-02-02T23:09:42.987Z,1.90
2024-02-02T23:12:46.551Z,1.40
2024-02-02T23:15:51.597Z,1.20
2024-02-02T23:18:54.539Z,1.60
2024-02-02T23:21:57.516Z,1.47
2024-02-02T23:25:00.473Z,1.03
2024-02-02T23:28:03.756Z,1.10
2024-02-02T23:31:09.211Z,3.17
2024-02-02T23:34:12.572Z,1.43
2024-02-02T23:37:15.429Z,1.70
2024-02-02T23:40:18.457Z,1.10
2024-02-02T23:43:21.441Z,1.10
2024-02-02T23:46:26.053Z,1.00
2024-02-02T23:49:29.027Z,1.20
2024-02-02T23:52:32.017Z,0.70
2024-02-02T23:55:34.873Z,1.10
2024-02-02T23:58:37.724Z,1.07
